Time;durP1;ratioP1;P1;durP2;ratioP2;P2;SDS_P1;SDS_P2;PMS_P1;PMS_P2;Temp;Humidity;BMP_temperature;BMP_pressure;BME280_temperature;BME280_humidity;BME280_pressure;Samples;Min_cycle;Max_cycle;Signal;HPM_P1;HPM_P2
2021/01/05 00:00:23;;;;;;;29.40;16.88;;;0.90;99.90;;;;;;5009901;28;20042;-69
2021/01/05 00:02:53;;;;;;;28.27;16.63;;;0.90;99.90;;;;;;5009284;28;20053;-70
2021/01/05 00:05:21;;;;;;;30.13;16.85;;;0.90;99.90;;;;;;5002955;28;20125;-70
2021/01/05 00:07:50;;;;;;;22.60;13.32;;;0.90;99.90;;;;;;5006008;28;20466;-70
2021/01/05 00:10:17;;;;;;;31.00;17.95;;;1.10;99.90;;;;;;5008842;28;20053;-69
2021/01/05 00:12:43;;;;;;;29.85;17.60;;;0.90;99.90;;;;;;5002152;28;20153;-69
2021/01/05 00:15:11;;;;;;;31.65;17.77;;;0.90;99.90;;;;;;5009047;28;20129;-70
2021/01/05 00:17:37;;;;;;;29.30;17.08;;;0.90;99.90;;;;;;5008025;28;20129;-69
2021/01/05 00:20:10;;;;;;;27.45;15.80;;;0.90;99.90;;;;;;4990935;28;20145;-69
2021/01/05 00:22:36;;;;;;;29.05;17.02;;;0.90;99.90;;;;;;5008805;28;20173;-69
2021/01/05 00:25:06;;;;;;;28.45;15.45;;;0.90;99.90;;;;;;5008119;28;20081;-70
2021/01/05 00:27:33;;;;;;;27.50;16.92;;;0.90;99.90;;;;;;5001599;28;20082;-70
2021/01/05 00:29:59;;;;;;;30.65;16.98;;;1.00;99.90;;;;;;4997666;28;20133;-69
2021/01/05 00:32:25;;;;;;;26.00;16.58;;;1.00;99.90;;;;;;5009104;28;20165;-69
2021/01/05 00:34:52;;;;;;;27.73;16.15;;;1.00;99.90;;;;;;5009228;28;20108;-70
2021/01/05 00:37:19;;;;;;;26.05;14.20;;;1.10;99.90;;;;;;4998087;28;20153;-70
2021/01/05 00:39:46;;;;;;;25.92;15.93;;;1.10;99.90;;;;;;4992793;28;20535;-69
2021/01/05 00:42:13;;;;;;;31.38;17.42;;;1.10;99.90;;;;;;5007708;28;20133;-70
2021/01/05 00:44:40;;;;;;;25.63;15.52;;;1.00;99.90;;;;;;5009514;28;20495;-70
2021/01/05 00:47:07;;;;;;;26.02;15.23;;;1.10;99.90;;;;;;5008944;28;20042;-70
2021/01/05 00:49:33;;;;;;;27.30;16.40;;;1.10;99.90;;;;;;5009476;28;20069;-70
2021/01/05 00:52:01;;;;;;;25.58;15.02;;;1.10;99.90;;;;;;5008469;28;20054;-70
2021/01/05 00:54:31;;;;;;;30.25;18.13;;;1.10;99.90;;;;;;5008961;28;20349;-69
2021/01/05 00:57:05;;;;;;;29.02;15.65;;;1.00;99.90;;;;;;5009078;28;20137;-69
2021/01/05 00:59:32;;;;;;;29.27;16.67;;;1.00;99.90;;;;;;5009393;28;20454;-69
2021/01/05 01:01:59;;;;;;;23.98;14.38;;;1.00;99.90;;;;;;5009326;28;20042;-69
2021/01/05 01:04:27;;;;;;;28.15;17.10;;;1.10;99.90;;;;;;5008683;28;20081;-69
2021/01/05 01:06:54;;;;;;;26.00;15.95;;;1.00;99.90;;;;;;5006400;28;20051;-69
2021/01/05 01:09:21;;;;;;;24.88;14.10;;;0.90;99.90;;;;;;5008936;28;20153;-69
2021/01/05 01:12:02;;;;;;;28.25;15.27;;;1.00;99.90;;;;;;5008151;28;20390;-69
2021/01/05 01:14:30;;;;;;;32.35;17.80;;;1.10;99.90;;;;;;5008961;28;20077;-69
2021/01/05 01:16:56;;;;;;;28.75;16.20;;;1.00;99.90;;;;;;5007987;28;20586;-69
2021/01/05 01:19:23;;;;;;;24.13;13.80;;;1.00;99.90;;;;;;5004349;28;20050;-69
2021/01/05 01:21:52;;;;;;;27.25;15.15;;;1.10;99.90;;;;;;4992900;28;20151;-69
2021/01/05 01:24:20;;;;;;;30.77;16.85;;;1.10;99.90;;;;;;4998582;28;20052;-69
2021/01/05 01:26:47;;;;;;;26.42;15.52;;;0.90;99.90;;;;;;5007736;28;20153;-69
2021/01/05 01:29:22;;;;;;;30.00;17.15;;;1.00;99.90;;;;;;5008985;28;20137;-68
2021/01/05 01:31:49;;;;;;;30.25;16.70;;;0.90;99.90;;;;;;5008798;28;20108;-69
2021/01/05 01:34:22;;;;;;;34.85;20.42;;;0.90;99.90;;;;;;5001181;28;20096;-69
2021/01/05 01:37:06;;;;;;;30.08;17.08;;;0.80;99.90;;;;;;5006675;28;20089;-69
2021/01/05 01:39:34;;;;;;;27.33;16.00;;;0.90;99.90;;;;;;5008943;28;20188;-69
2021/01/05 01:42:05;;;;;;;29.88;16.92;;;0.90;99.90;;;;;;5012073;28;20120;-69
2021/01/05 01:44:34;;;;;;;33.83;19.88;;;0.90;99.90;;;;;;5010712;28;20145;-69
2021/01/05 01:47:10;;;;;;;27.52;17.52;;;0.90;99.90;;;;;;4997952;28;20479;-70
2021/01/05 01:49:37;;;;;;;37.55;21.05;;;0.90;99.90;;;;;;4992938;28;20074;-70
2021/01/05 01:52:06;;;;;;;34.35;19.98;;;0.80;99.90;;;;;;4992587;28;20134;-71
2021/01/05 01:54:38;;;;;;;30.80;17.58;;;0.80;99.90;;;;;;4995762;28;20077;-70
2021/01/05 01:57:23;;;;;;;33.53;19.58;;;0.90;99.90;;;;;;5012182;28;20131;-70
2021/01/05 02:00:21;;;;;;;32.83;19.33;;;0.80;99.90;;;;;;5012049;28;20050;-70
2021/01/05 02:02:57;;;;;;;33.22;19.40;;;0.90;99.90;;;;;;5011652;28;20080;-70
2021/01/05 02:05:47;;;;;;;34.03;18.92;;;0.80;99.90;;;;;;4996262;28;20082;-71
2021/01/05 02:08:39;;;;;;;34.45;18.88;;;0.90;99.90;;;;;;4971276;28;20054;-70
2021/01/05 02:11:24;;;;;;;31.15;19.77;;;0.90;99.90;;;;;;5007070;28;20081;-71
2021/01/05 02:14:08;;;;;;;35.40;19.65;;;0.90;99.90;;;;;;5008147;28;20086;-70
2021/01/05 02:16:55;;;;;;;29.70;17.98;;;0.80;99.90;;;;;;4992068;28;20073;-71
2021/01/05 02:19:40;;;;;;;34.40;19.10;;;0.90;99.90;;;;;;4992349;28;20133;-70
2021/01/05 02:22:28;;;;;;;38.08;21.70;;;0.90;99.90;;;;;;4993865;28;20132;-70
2021/01/05 02:25:13;;;;;;;33.05;18.13;;;0.90;99.90;;;;;;5011612;28;20112;-70
2021/01/05 02:27:51;;;;;;;34.17;19.70;;;0.90;99.90;;;;;;5003533;28;20122;-70
2021/01/05 02:30:26;;;;;;;31.00;16.55;;;0.90;99.90;;;;;;4991851;28;20062;-70
2021/01/05 02:33:05;;;;;;;29.83;16.08;;;0.90;99.90;;;;;;4999466;28;20077;-71
2021/01/05 02:35:52;;;;;;;37.45;21.30;;;1.00;99.90;;;;;;5011045;28;20399;-70
2021/01/05 02:38:30;;;;;;;34.95;18.48;;;0.90;99.90;;;;;;5010425;28;20523;-71
2021/01/05 02:41:37;;;;;;;34.20;18.73;;;1.00;99.90;;;;;;5001222;28;20237;-70
2021/01/05 02:44:48;;;;;;;31.10;18.23;;;1.00;99.90;;;;;;4993105;28;20054;-69
2021/01/05 02:47:56;;;;;;;36.63;21.05;;;1.00;99.90;;;;;;4994836;28;20551;-69
2021/01/05 02:50:40;;;;;;;31.83;16.80;;;0.90;99.90;;;;;;4975542;28;20527;-69
2021/01/05 02:53:31;;;;;;;30.20;16.63;;;0.90;99.90;;;;;;4991631;28;20078;-69
2021/01/05 02:56:32;;;;;;;33.72;18.52;;;0.90;99.90;;;;;;5011067;28;20129;-71
2021/01/05 02:59:22;;;;;;;35.28;20.02;;;1.00;99.90;;;;;;4992096;28;20479;-70
2021/01/05 03:02:39;;;;;;;32.60;19.35;;;0.90;99.90;;;;;;5010503;28;20042;-71
2021/01/05 03:05:08;;;;;;;35.83;19.83;;;0.90;99.90;;;;;;4966776;28;20077;-70
2021/01/05 03:07:36;;;;;;;37.97;21.48;;;0.80;99.90;;;;;;5009687;28;20088;-71
2021/01/05 03:10:30;;;;;;;36.92;20.98;;;0.80;99.90;;;;;;5009462;28;20046;-70
2021/01/05 03:13:15;;;;;;;33.85;19.20;;;0.80;99.90;;;;;;5010507;28;20172;-71
2021/01/05 03:15:47;;;;;;;29.33;16.38;;;0.80;99.90;;;;;;4992231;28;20065;-71
2021/01/05 03:18:23;;;;;;;35.80;20.65;;;0.90;99.90;;;;;;5006270;28;20084;-70
2021/01/05 03:21:30;;;;;;;34.33;18.02;;;0.80;99.90;;;;;;5005207;28;20089;-70
2021/01/05 03:23:59;;;;;;;30.98;17.30;;;0.90;99.90;;;;;;4926768;29;20111;-70
2021/01/05 03:26:32;;;;;;;28.77;16.02;;;1.00;99.90;;;;;;4979266;28;20050;-70
2021/01/05 03:29:00;;;;;;;28.10;16.00;;;0.90;99.90;;;;;;4998249;28;20230;-70
2021/01/05 03:31:47;;;;;;;30.48;16.90;;;0.90;99.90;;;;;;5009607;28;20168;-70
2021/01/05 03:34:14;;;;;;;28.50;16.35;;;1.00;99.90;;;;;;5009551;28;20125;-70
2021/01/05 03:36:41;;;;;;;27.50;16.48;;;1.00;99.90;;;;;;5009474;28;20089;-70
2021/01/05 03:39:08;;;;;;;29.00;16.17;;;1.00;99.90;;;;;;4999576;28;20580;-70
2021/01/05 03:41:35;;;;;;;27.90;15.57;;;1.10;99.90;;;;;;4990313;28;20097;-70
2021/01/05 03:44:02;;;;;;;30.13;16.52;;;1.00;99.90;;;;;;4990358;28;20416;-70
2021/01/05 03:46:30;;;;;;;33.78;17.63;;;1.00;99.90;;;;;;4990129;28;20078;-70
2021/01/05 03:48:57;;;;;;;33.97;18.95;;;1.00;99.90;;;;;;4998322;28;20088;-71
2021/01/05 03:51:23;;;;;;;27.95;16.85;;;0.90;99.90;;;;;;5006595;28;20538;-70
2021/01/05 03:53:50;;;;;;;28.95;16.98;;;0.90;99.90;;;;;;5007824;28;20046;-70
2021/01/05 03:56:17;;;;;;;28.80;15.55;;;0.90;99.90;;;;;;5009027;28;20085;-70
2021/01/05 03:58:43;;;;;;;35.17;18.60;;;1.00;99.90;;;;;;5006771;28;20417;-70
2021/01/05 04:01:10;;;;;;;27.48;15.10;;;0.90;99.90;;;;;;5007689;28;20503;-70
2021/01/05 04:03:36;;;;;;;30.77;17.58;;;0.90;99.90;;;;;;5008396;28;20536;-70
2021/01/05 04:06:02;;;;;;;33.45;18.02;;;0.90;99.90;;;;;;5008678;28;20180;-70
2021/01/05 04:08:29;;;;;;;31.83;16.88;;;0.90;99.90;;;;;;5008335;28;20124;-70
2021/01/05 04:10:55;;;;;;;32.80;17.23;;;0.90;99.90;;;;;;5009448;28;20416;-70
2021/01/05 04:13:22;;;;;;;32.35;17.67;;;0.90;99.90;;;;;;5009314;28;20421;-70
2021/01/05 04:15:48;;;;;;;31.67;17.77;;;0.90;99.90;;;;;;5009005;28;20045;-71
2021/01/05 04:18:15;;;;;;;38.42;19.42;;;0.90;99.90;;;;;;5008204;28;20132;-70
2021/01/05 04:20:42;;;;;;;28.05;15.40;;;0.80;99.90;;;;;;5008902;28;20053;-70
2021/01/05 04:23:08;;;;;;;32.05;17.38;;;0.80;99.90;;;;;;5007385;28;20129;-70
2021/01/05 04:25:35;;;;;;;32.78;17.02;;;0.90;99.90;;;;;;5009202;28;20077;-70
2021/01/05 04:28:02;;;;;;;32.20;17.90;;;0.90;99.90;;;;;;5008678;28;20104;-70
2021/01/05 04:30:33;;;;;;;29.30;16.67;;;0.90;99.90;;;;;;5009688;28;20084;-70
2021/01/05 04:33:03;;;;;;;28.70;17.23;;;0.90;99.90;;;;;;5008363;28;20197;-70
2021/01/05 04:35:30;;;;;;;32.17;17.60;;;0.90;99.90;;;;;;4989795;28;20143;-70
2021/01/05 04:37:57;;;;;;;27.50;15.68;;;0.80;99.90;;;;;;4989387;28;20433;-69
2021/01/05 04:40:37;;;;;;;31.80;16.50;;;0.90;99.90;;;;;;4989500;28;20100;-70
2021/01/05 04:43:27;;;;;;;31.70;18.00;;;0.80;99.90;;;;;;5000402;28;20100;-70
2021/01/05 04:46:12;;;;;;;28.70;16.02;;;0.90;99.90;;;;;;4989688;28;20635;-70
2021/01/05 04:48:41;;;;;;;30.90;14.73;;;0.90;99.90;;;;;;4989888;28;20400;-70
2021/01/05 04:51:17;;;;;;;29.55;15.75;;;0.90;99.90;;;;;;4989660;28;20105;-70
2021/01/05 04:53:57;;;;;;;34.53;16.45;;;0.90;99.90;;;;;;4989754;28;20046;-70
2021/01/05 04:56:49;;;;;;;36.35;17.85;;;0.80;99.90;;;;;;4990286;28;20572;-70
2021/01/05 04:59:17;;;;;;;28.90;15.70;;;0.80;99.90;;;;;;4992385;28;20081;-70
2021/01/05 05:01:44;;;;;;;32.90;17.45;;;0.80;99.90;;;;;;5006857;28;20537;-70
2021/01/05 05:04:24;;;;;;;28.45;15.60;;;0.70;99.90;;;;;;5008650;28;20074;-70
2021/01/05 05:07:26;;;;;;;33.58;17.95;;;0.80;99.90;;;;;;5008141;28;20136;-69
2021/01/05 05:09:59;;;;;;;28.33;16.00;;;0.80;99.90;;;;;;5009087;28;20077;-70
2021/01/05 05:12:40;;;;;;;31.40;16.35;;;0.80;99.90;;;;;;5007904;28;20503;-70
2021/01/05 05:15:44;;;;;;;33.75;16.40;;;0.80;99.90;;;;;;5011932;28;20064;-69
2021/01/05 05:18:33;;;;;;;34.45;19.45;;;0.90;99.90;;;;;;5011508;28;20096;-69
2021/01/05 05:21:29;;;;;;;29.70;15.82;;;0.80;99.90;;;;;;5011861;28;20132;-70
2021/01/05 05:24:36;;;;;;;28.40;14.40;;;1.00;99.90;;;;;;4992663;28;20439;-70
2021/01/05 05:27:39;;;;;;;30.65;15.63;;;1.00;99.90;;;;;;4904527;29;20560;-70
2021/01/05 05:30:11;;;;;;;29.88;16.45;;;0.90;99.90;;;;;;4913198;29;20619;-70
2021/01/05 05:32:50;;;;;;;30.05;15.32;;;0.80;99.90;;;;;;4977596;28;20074;-70
2021/01/05 05:35:41;;;;;;;25.88;14.30;;;0.90;99.90;;;;;;5018498;28;20065;-70
2021/01/05 05:38:28;;;;;;;27.70;15.10;;;0.90;99.90;;;;;;5011475;28;20169;-70
2021/01/05 05:41:17;;;;;;;30.13;15.00;;;0.80;99.90;;;;;;4994431;28;20518;-70
2021/01/05 05:44:19;;;;;;;27.23;13.68;;;0.90;99.90;;;;;;4998195;28;20073;-70
2021/01/05 05:47:14;;;;;;;25.58;13.77;;;0.90;99.90;;;;;;5007187;28;20125;-71
2021/01/05 05:49:52;;;;;;;29.92;14.70;;;0.90;99.90;;;;;;5004424;28;20050;-70
2021/01/05 05:52:41;;;;;;;30.15;15.70;;;0.80;99.90;;;;;;5010939;28;20085;-70
2021/01/05 05:55:36;;;;;;;30.23;15.75;;;0.80;99.90;;;;;;4992291;28;20120;-70
2021/01/05 05:58:03;;;;;;;30.67;16.60;;;0.80;99.90;;;;;;4999703;28;20145;-71
2021/01/05 06:00:37;;;;;;;26.10;13.10;;;0.80;99.90;;;;;;5011252;28;20076;-70
2021/01/05 06:03:05;;;;;;;25.83;13.98;;;0.90;99.90;;;;;;5002929;28;20132;-70
2021/01/05 06:05:34;;;;;;;27.92;15.35;;;1.00;99.90;;;;;;5011344;28;20069;-70
2021/01/05 06:08:06;;;;;;;30.02;15.77;;;0.90;99.90;;;;;;4992951;28;20073;-70
2021/01/05 06:10:34;;;;;;;26.15;14.18;;;0.90;99.90;;;;;;5013447;28;20133;-70
2021/01/05 06:13:00;;;;;;;25.63;13.90;;;0.90;99.90;;;;;;5016441;28;20196;-70
2021/01/05 06:15:27;;;;;;;26.67;15.25;;;1.00;99.90;;;;;;5008246;28;20050;-70
2021/01/05 06:17:53;;;;;;;24.73;13.70;;;0.90;99.90;;;;;;5010714;28;20404;-70
2021/01/05 06:20:20;;;;;;;28.42;14.20;;;1.00;99.90;;;;;;5011501;28;20475;-70
2021/01/05 06:22:46;;;;;;;26.30;13.23;;;1.10;99.90;;;;;;5009725;28;20077;-71
2021/01/05 06:25:14;;;;;;;23.80;12.95;;;1.10;99.90;;;;;;5009971;28;20085;-70
2021/01/05 06:27:41;;;;;;;28.08;13.77;;;1.10;99.90;;;;;;5010529;28;20053;-70
2021/01/05 06:30:08;;;;;;;29.17;13.43;;;1.10;99.90;;;;;;5009812;28;20475;-70
2021/01/05 06:32:35;;;;;;;27.85;14.75;;;1.10;99.90;;;;;;5010935;28;20123;-70
2021/01/05 06:35:02;;;;;;;28.35;14.90;;;1.10;99.90;;;;;;4992412;28;20043;-70
2021/01/05 06:37:29;;;;;;;31.13;16.00;;;1.00;99.90;;;;;;5008393;28;20084;-70
2021/01/05 06:39:55;;;;;;;25.88;14.43;;;1.00;99.90;;;;;;5011309;28;20190;-70
2021/01/05 06:42:22;;;;;;;26.98;14.43;;;1.10;99.90;;;;;;5011214;28;20133;-70
2021/01/05 06:44:48;;;;;;;26.58;13.85;;;1.00;99.90;;;;;;5010221;28;20050;-70
2021/01/05 06:47:14;;;;;;;27.33;15.18;;;1.10;99.90;;;;;;5010607;28;20135;-70
2021/01/05 06:49:41;;;;;;;25.63;14.10;;;1.00;99.90;;;;;;4992879;28;20050;-70
2021/01/05 06:52:08;;;;;;;28.95;15.98;;;1.00;99.90;;;;;;5010095;28;20125;-70
2021/01/05 06:54:35;;;;;;;30.70;15.55;;;1.00;99.90;;;;;;5009889;28;20082;-70
2021/01/05 06:57:02;;;;;;;30.70;15.55;;;1.00;99.90;;;;;;5010251;28;20263;-71
2021/01/05 06:59:29;;;;;;;25.95;14.60;;;1.00;99.90;;;;;;5005478;28;20483;-70
2021/01/05 07:02:01;;;;;;;27.30;15.20;;;1.00;99.90;;;;;;5000575;28;20077;-69
2021/01/05 07:04:28;;;;;;;29.20;15.45;;;1.10;99.90;;;;;;5009921;28;20129;-70
2021/01/05 07:06:56;;;;;;;25.75;14.07;;;1.00;99.90;;;;;;5009503;28;20108;-70
2021/01/05 07:09:27;;;;;;;30.95;16.20;;;1.00;99.90;;;;;;5009754;28;20452;-70
2021/01/05 07:11:53;;;;;;;26.88;14.38;;;1.00;99.90;;;;;;5002812;28;20100;-70
2021/01/05 07:14:22;;;;;;;32.25;16.50;;;1.00;99.90;;;;;;5001111;28;20447;-70
2021/01/05 07:16:49;;;;;;;25.90;14.68;;;0.90;99.90;;;;;;5010425;28;20136;-70
2021/01/05 07:19:16;;;;;;;24.90;14.65;;;1.00;99.90;;;;;;5008403;28;20077;-70
2021/01/05 07:21:43;;;;;;;32.25;17.70;;;1.00;99.90;;;;;;5009593;28;20129;-70
2021/01/05 07:24:11;;;;;;;30.23;15.38;;;0.90;99.90;;;;;;5010322;28;20118;-70
2021/01/05 07:26:40;;;;;;;26.83;14.75;;;0.90;99.90;;;;;;5009659;28;20077;-70
2021/01/05 07:29:07;;;;;;;28.05;15.45;;;1.00;99.90;;;;;;5009012;28;20077;-70
2021/01/05 07:31:33;;;;;;;23.95;13.82;;;1.00;99.90;;;;;;5009661;28;20128;-71
2021/01/05 07:33:59;;;;;;;29.50;16.13;;;1.00;99.90;;;;;;5024910;28;20641;-70
2021/01/05 07:36:30;;;;;;;31.92;17.05;;;0.90;99.90;;;;;;5009931;28;20128;-70
2021/01/05 07:38:57;;;;;;;30.30;16.85;;;0.80;99.90;;;;;;5009288;28;20041;-71
2021/01/05 07:41:24;;;;;;;27.08;14.93;;;0.80;99.90;;;;;;5009280;28;20053;-71
2021/01/05 07:43:51;;;;;;;30.75;17.40;;;0.90;99.90;;;;;;5009264;28;20358;-70
2021/01/05 07:46:17;;;;;;;33.70;17.95;;;0.80;99.90;;;;;;5008206;28;20152;-71
2021/01/05 07:48:44;;;;;;;33.97;17.23;;;0.80;99.90;;;;;;5002093;28;20069;-71
2021/01/05 07:51:11;;;;;;;28.58;15.75;;;0.80;99.90;;;;;;5009194;28;20053;-71
2021/01/05 07:53:37;;;;;;;29.30;15.82;;;0.90;99.90;;;;;;5009820;28;20085;-71
2021/01/05 07:56:04;;;;;;;32.47;16.15;;;0.90;99.90;;;;;;5009544;28;20092;-70
2021/01/05 07:58:30;;;;;;;25.35;14.57;;;0.90;99.90;;;;;;5001683;28;20141;-70
2021/01/05 08:00:57;;;;;;;29.27;15.23;;;1.00;99.90;;;;;;4999810;28;20042;-70
2021/01/05 08:03:23;;;;;;;27.75;14.27;;;1.00;99.90;;;;;;5009140;28;20136;-70
2021/01/05 08:05:50;;;;;;;25.67;14.63;;;1.10;99.90;;;;;;4991805;28;20077;-70
2021/01/05 08:08:16;;;;;;;26.15;13.93;;;1.20;99.90;;;;;;5008493;28;20116;-70
2021/01/05 08:10:42;;;;;;;27.45;15.55;;;1.10;99.90;;;;;;5008930;28;20200;-71
2021/01/05 08:13:11;;;;;;;25.55;14.48;;;1.10;99.90;;;;;;5008292;28;20112;-71
2021/01/05 08:15:38;;;;;;;23.58;13.20;;;1.00;99.90;;;;;;5008787;28;20141;-70
2021/01/05 08:18:09;;;;;;;26.92;15.35;;;1.00;99.90;;;;;;4994812;28;20112;-70
2021/01/05 08:20:36;;;;;;;29.10;16.50;;;1.00;99.90;;;;;;5005660;28;20053;-71
2021/01/05 08:23:03;;;;;;;25.83;14.13;;;1.00;99.90;;;;;;5007917;28;20136;-70
2021/01/05 08:25:31;;;;;;;23.80;13.60;;;1.10;99.90;;;;;;5009200;28;20054;-71
2021/01/05 08:27:59;;;;;;;28.70;14.70;;;1.00;99.90;;;;;;5005767;28;20132;-71
2021/01/05 08:30:28;;;;;;;32.42;16.02;;;1.00;99.90;;;;;;5008336;28;20038;-71
2021/01/05 08:32:58;;;;;;;21.42;12.20;;;1.00;99.90;;;;;;5006976;28;20042;-71
2021/01/05 08:35:25;;;;;;;21.77;13.18;;;1.10;99.90;;;;;;5006401;28;20084;-71
2021/01/05 08:37:53;;;;;;;21.77;12.77;;;1.20;99.90;;;;;;5008257;28;20129;-71
2021/01/05 08:40:25;;;;;;;29.38;14.75;;;1.10;99.90;;;;;;5009022;28;20463;-71
2021/01/05 08:42:51;;;;;;;26.00;15.20;;;1.00;99.90;;;;;;5003650;28;20049;-71
2021/01/05 08:45:18;;;;;;;27.02;14.88;;;1.00;99.90;;;;;;5004361;28;20077;-70
2021/01/05 08:47:46;;;;;;;26.60;15.45;;;1.00;99.90;;;;;;5007491;28;20074;-70
2021/01/05 08:50:20;;;;;;;25.88;15.02;;;0.90;99.90;;;;;;5012094;28;20046;-70
2021/01/05 08:52:47;;;;;;;26.60;14.90;;;1.00;99.90;;;;;;5011477;28;20085;-71
2021/01/05 08:55:14;;;;;;;28.02;16.40;;;1.00;99.90;;;;;;5011009;28;20117;-71
2021/01/05 08:57:40;;;;;;;27.75;15.27;;;1.00;99.90;;;;;;5007995;28;20133;-71
2021/01/05 09:00:08;;;;;;;28.98;15.73;;;0.90;99.90;;;;;;5027927;28;20070;-71
2021/01/05 09:02:35;;;;;;;28.75;16.05;;;0.90;99.90;;;;;;5010355;28;20523;-70
2021/01/05 09:05:01;;;;;;;25.38;14.35;;;1.00;99.90;;;;;;5010635;28;20555;-70
2021/01/05 09:07:28;;;;;;;25.63;14.30;;;1.10;99.90;;;;;;5008833;28;20137;-70
2021/01/05 09:09:54;;;;;;;26.98;15.00;;;1.20;99.90;;;;;;5012205;28;20451;-70
2021/01/05 09:12:21;;;;;;;35.85;17.60;;;1.30;99.90;;;;;;5010124;28;20129;-71
2021/01/05 09:14:47;;;;;;;25.27;14.85;;;1.10;99.90;;;;;;5010047;28;20172;-70
2021/01/05 09:17:16;;;;;;;27.25;15.77;;;1.10;99.90;;;;;;5010796;28;20100;-70
2021/01/05 09:19:42;;;;;;;28.70;15.38;;;1.10;99.90;;;;;;4995685;28;20046;-70
2021/01/05 09:22:09;;;;;;;28.38;16.15;;;1.10;99.90;;;;;;5005983;28;20089;-70
2021/01/05 09:24:35;;;;;;;31.92;17.10;;;1.00;99.90;;;;;;5021438;28;20107;-70
2021/01/05 09:27:02;;;;;;;28.73;17.05;;;1.10;99.90;;;;;;5014749;28;20076;-70
2021/01/05 09:29:28;;;;;;;31.73;16.42;;;1.10;99.90;;;;;;5022420;28;20045;-70
2021/01/05 09:31:56;;;;;;;28.45;15.55;;;1.20;99.90;;;;;;5010980;28;20113;-70
2021/01/05 09:34:24;;;;;;;29.15;14.88;;;1.20;99.90;;;;;;5006834;28;20065;-71
2021/01/05 09:36:51;;;;;;;33.58;17.05;;;1.30;99.90;;;;;;5011029;28;20458;-70
2021/01/05 09:39:21;;;;;;;27.52;15.38;;;1.30;99.90;;;;;;5011846;28;20515;-70
2021/01/05 09:42:05;;;;;;;28.33;15.50;;;1.30;99.90;;;;;;5011194;28;20077;-71
2021/01/05 09:44:32;;;;;;;28.45;15.60;;;1.30;99.90;;;;;;5011534;28;20115;-70
2021/01/05 09:47:01;;;;;;;26.30;14.35;;;1.20;99.90;;;;;;5010886;28;20048;-71
2021/01/05 09:49:30;;;;;;;28.55;14.75;;;1.20;99.90;;;;;;5010976;28;20050;-70
2021/01/05 09:52:00;;;;;;;27.42;16.08;;;1.30;99.90;;;;;;5010689;28;20439;-70
2021/01/05 09:54:28;;;;;;;25.02;14.90;;;1.30;99.90;;;;;;5009643;28;20058;-70
2021/01/05 09:56:56;;;;;;;25.85;14.57;;;1.40;99.90;;;;;;5006039;28;20088;-70
2021/01/05 09:59:28;;;;;;;22.42;13.52;;;1.50;99.90;;;;;;5006766;28;20072;-70
2021/01/05 10:01:55;;;;;;;27.45;14.55;;;1.50;99.90;;;;;;5000069;28;20053;-71
2021/01/05 10:04:22;;;;;;;27.48;15.13;;;1.50;99.90;;;;;;5011364;28;20045;-71
2021/01/05 10:06:49;;;;;;;28.77;15.02;;;1.50;99.90;;;;;;5010194;28;20046;-71
2021/01/05 10:09:15;;;;;;;25.33;14.35;;;1.40;99.90;;;;;;5011274;28;20049;-71
2021/01/05 10:11:45;;;;;;;26.65;15.27;;;1.40;99.90;;;;;;5010033;28;20076;-71
2021/01/05 10:14:14;;;;;;;28.00;15.45;;;1.30;99.90;;;;;;5010532;28;20446;-71
2021/01/05 10:16:41;;;;;;;27.80;16.20;;;1.20;99.90;;;;;;5010615;28;20053;-71
2021/01/05 10:19:13;;;;;;;22.30;14.18;;;1.20;99.90;;;;;;5011140;28;20046;-71
2021/01/05 10:21:42;;;;;;;24.25;13.80;;;1.30;99.90;;;;;;5009939;28;20074;-70
2021/01/05 10:24:11;;;;;;;27.45;15.23;;;1.30;99.90;;;;;;5011037;28;20461;-70
2021/01/05 10:26:37;;;;;;;23.17;12.82;;;1.30;99.90;;;;;;5010598;28;20495;-71
2021/01/05 10:29:05;;;;;;;24.67;13.95;;;1.40;99.90;;;;;;5010962;28;20081;-71
2021/01/05 10:31:40;;;;;;;24.73;13.55;;;1.20;99.90;;;;;;5010328;28;20521;-70
2021/01/05 10:34:07;;;;;;;34.33;17.20;;;1.30;99.90;;;;;;5011186;28;20100;-70
2021/01/05 10:36:34;;;;;;;20.90;12.65;;;1.40;99.90;;;;;;5010905;28;20073;-71
2021/01/05 10:39:10;;;;;;;18.98;11.70;;;1.40;99.90;;;;;;5010561;28;20507;-71
2021/01/05 10:41:40;;;;;;;25.95;14.20;;;1.50;99.90;;;;;;5001503;28;20114;-70
2021/01/05 10:44:07;;;;;;;27.23;13.52;;;1.30;99.90;;;;;;5010369;28;20046;-70
2021/01/05 10:46:34;;;;;;;24.60;13.93;;;1.30;99.90;;;;;;5010210;28;20046;-71
2021/01/05 10:49:01;;;;;;;32.97;16.98;;;1.30;99.90;;;;;;5008923;28;20046;-70
2021/01/05 10:51:27;;;;;;;44.35;22.58;;;1.40;99.90;;;;;;5009544;28;20507;-71
2021/01/05 10:53:54;;;;;;;25.92;15.20;;;1.50;99.90;;;;;;5009173;28;20568;-71
2021/01/05 10:56:22;;;;;;;28.83;15.70;;;1.40;99.90;;;;;;5008783;28;20058;-70
2021/01/05 10:58:48;;;;;;;24.67;13.00;;;1.40;99.90;;;;;;4992469;28;20099;-70
2021/01/05 11:01:15;;;;;;;21.90;11.98;;;1.50;99.90;;;;;;5004960;28;20085;-71
2021/01/05 11:03:41;;;;;;;24.95;13.68;;;1.50;99.90;;;;;;5006778;28;20085;-71
2021/01/05 11:06:09;;;;;;;36.88;18.67;;;1.50;99.90;;;;;;5008623;28;20046;-71
2021/01/05 11:08:36;;;;;;;46.70;21.30;;;1.50;99.90;;;;;;5008087;28;20082;-71
2021/01/05 11:11:04;;;;;;;37.97;19.27;;;1.50;99.90;;;;;;4992572;28;20049;-70
2021/01/05 11:13:31;;;;;;;75.47;37.90;;;1.50;99.90;;;;;;5007826;28;20116;-71
2021/01/05 11:15:58;;;;;;;24.77;14.25;;;1.50;99.90;;;;;;5003025;28;20045;-71
2021/01/05 11:18:25;;;;;;;26.77;16.25;;;1.50;99.90;;;;;;5005876;28;20511;-71
2021/01/05 11:20:52;;;;;;;23.20;15.10;;;1.50;99.90;;;;;;5009099;28;20100;-71
2021/01/05 11:23:18;;;;;;;21.27;12.63;;;1.50;99.90;;;;;;5012208;28;20046;-71
2021/01/05 11:25:45;;;;;;;25.08;13.60;;;1.50;99.90;;;;;;5009332;28;20525;-70
2021/01/05 11:28:11;;;;;;;24.67;13.48;;;1.40;99.90;;;;;;4990709;28;20128;-69
2021/01/05 11:30:38;;;;;;;22.25;13.57;;;1.40;99.90;;;;;;5005936;28;20331;-70
2021/01/05 11:33:05;;;;;;;25.73;14.20;;;1.40;99.90;;;;;;5008805;28;20133;-70
2021/01/05 11:35:32;;;;;;;23.60;14.15;;;1.30;99.90;;;;;;5008632;28;20042;-69
2021/01/05 11:37:58;;;;;;;24.20;13.98;;;1.40;99.90;;;;;;5008761;28;20150;-69
2021/01/05 11:40:26;;;;;;;25.58;15.27;;;1.40;99.90;;;;;;5008278;28;20045;-69
2021/01/05 11:42:54;;;;;;;53.00;30.05;;;1.30;99.90;;;;;;5001572;28;20077;-69
2021/01/05 11:45:21;;;;;;;46.58;26.38;;;1.40;99.90;;;;;;5003713;28;20516;-70
2021/01/05 11:47:49;;;;;;;78.53;44.97;;;1.40;99.90;;;;;;5008736;28;20052;-70
2021/01/05 11:50:17;;;;;;;32.78;15.88;;;1.20;99.90;;;;;;5007462;28;20046;-69
2021/01/05 11:52:44;;;;;;;64.95;36.85;;;1.30;99.90;;;;;;5000058;28;20069;-69
2021/01/05 11:55:11;;;;;;;44.63;27.70;;;1.40;99.90;;;;;;5008516;28;20096;-69
2021/01/05 11:57:37;;;;;;;34.55;19.30;;;1.40;99.90;;;;;;5006936;28;20127;-68
2021/01/05 12:00:07;;;;;;;36.83;21.88;;;1.30;99.90;;;;;;4987046;28;20364;-69
2021/01/05 12:02:34;;;;;;;34.78;19.65;;;1.30;99.90;;;;;;5008003;28;20112;-69
2021/01/05 12:05:00;;;;;;;30.63;16.67;;;1.30;99.90;;;;;;4990725;28;20050;-70
2021/01/05 12:07:27;;;;;;;33.05;18.02;;;1.30;99.90;;;;;;5006221;28;20049;-69
2021/01/05 12:09:54;;;;;;;35.72;19.42;;;1.30;99.90;;;;;;5005899;28;20123;-69
2021/01/05 12:12:21;;;;;;;33.40;17.10;;;1.30;99.90;;;;;;5006438;28;20077;-71
2021/01/05 12:14:48;;;;;;;29.77;16.63;;;1.20;99.90;;;;;;5008761;28;20112;-71
2021/01/05 12:17:15;;;;;;;31.83;17.38;;;1.30;99.90;;;;;;5007982;28;20050;-72
2021/01/05 12:19:43;;;;;;;35.40;18.27;;;1.30;99.90;;;;;;5008637;28;20062;-71
2021/01/05 12:22:11;;;;;;;32.40;17.58;;;1.30;99.90;;;;;;5006580;28;20050;-71
2021/01/05 12:24:39;;;;;;;38.17;19.60;;;1.40;99.90;;;;;;5007933;28;20103;-71
2021/01/05 12:27:07;;;;;;;30.98;16.65;;;1.30;99.90;;;;;;5007813;28;20464;-70
2021/01/05 12:29:36;;;;;;;34.75;17.75;;;1.40;99.90;;;;;;5006608;28;20042;-69
2021/01/05 12:32:15;;;;;;;32.53;17.27;;;1.30;99.90;;;;;;5004590;28;20041;-71
2021/01/05 12:34:45;;;;;;;52.60;34.90;;;1.30;99.90;;;;;;5006808;28;20464;-70
2021/01/05 12:37:23;;;;;;;48.35;29.70;;;1.30;99.90;;;;;;5005369;28;20148;-70
2021/01/05 12:39:51;;;;;;;55.22;33.28;;;1.50;99.90;;;;;;4988164;28;20053;-70
2021/01/05 12:42:21;;;;;;;77.22;48.97;;;1.50;99.90;;;;;;5003322;28;20045;-69
2021/01/05 12:44:49;;;;;;;37.00;19.88;;;1.50;99.90;;;;;;5007962;28;20495;-71
2021/01/05 12:47:16;;;;;;;32.08;18.35;;;1.60;99.90;;;;;;5007871;28;20179;-71
2021/01/05 12:49:44;;;;;;;32.03;17.45;;;1.50;99.90;;;;;;5008061;28;20471;-71
2021/01/05 12:52:11;;;;;;;29.70;15.95;;;1.50;99.90;;;;;;4990975;28;20093;-68
2021/01/05 12:54:39;;;;;;;30.60;17.05;;;1.70;99.90;;;;;;5008977;28;20149;-68
2021/01/05 12:57:08;;;;;;;33.88;18.73;;;1.60;99.90;;;;;;5023438;28;20053;-71